Latest Coastal Weather Observations for Cape Nelson

IDS60701

Issued at 11:21 pm CDT Sunday 14 February 2016 (issued every 10 minutes, with the page automatically refreshed every 10 minutes)

About coastal observations | Map of coastal stations | Coastal observations for SA | Marine services | Other Formats
Station Details ID: 090184 Name: CAPE NELSON LIGHTHOUSE Lat: -38.43 Lon: 141.54 Height: 45.4 m
Data from the previous 72 hours. | See also: Recent months at Cape Nelson
Date/Time
CDT
Temp

°C
Wind Pressure Rain
since 9am
mm
Weather Cloud Vis
km
Sea
Height
m
Swell
Dir
 
Speed
knots
Gust
knots
hPa Trend Height
m
Period
s
Dir
14/11:00pm 16.7 W 11 15 1014.7 - 0.6 - - - - - - -
14/10:30pm 16.5 N 7 13 1014.9 - 0.6 - - - - - - -
14/10:00pm 16.7 NNE 6 12 1014.9 - 0.6 - - - - - - -
14/09:30pm 16.4 WNW 9 13 1015.0 - 0.6 - - - - - - -
14/09:00pm 16.6 NNW 7 11 1014.6 - 0.6 - - - - - - -
14/08:30pm 16.5 NNE 7 12 1014.2 - 0.6 - - - - - - -
14/08:00pm 16.7 NW 7 13 1013.9 - 0.6 - - - - - - -
14/07:30pm 16.7 NNE 7 9 1013.6 - 0.6 - - - - - - -
14/07:00pm 17.6 NNE 10 15 1013.1 - 0.6 - - - - - - -
14/06:30pm 17.7 W 16 20 1013.2 - 0.6 - - - - - - -
14/06:00pm 17.9 W 14 19 1013.3 - 0.6 - - - - - - -
14/05:30pm 18.0 W 14 20 1013.3 - 0.6 Recent precip. - - - - - -
14/05:00pm 17.3 WNW 11 18 1013.1 - 0.6 - - - - - - -
14/04:30pm 16.6 N 11 21 1012.8 - 0.4 - - - - - - -
14/04:00pm 18.3 W 12 18 1013.0 - 0.2 - - - - - - -
14/03:30pm 18.4 W 10 16 1013.0 - 0.2 - - - - - - -
14/03:00pm 18.7 NW 9 15 1013.0 - 0.2 - - - - - - -
14/02:30pm 18.5 W 13 24 1013.0 - 0.2 - - - - - - -
14/02:00pm 19.1 WNW 15 21 1012.9 - 0.2 - - - - - - -
14/01:37pm 17.8 W 15 29 1012.8 - 0.2 - - - - - - -
14/01:30pm 19.4 W 12 18 1012.7 - 0.2 - - - - - - -
14/01:00pm 18.2 W 10 16 1012.7 - 0.2 - - - - - - -
14/12:30pm 16.6 WNW 14 23 1012.8 - 0.2 - - - - - - -
14/12:08pm 18.3 W 16 28 1012.9 - 0.2 - - - - - - -
14/12:00pm 18.7 W 13 23 1012.8 - 0.2 - - - - - - -
14/11:30am 18.7 W 15 23 1012.6 - 0.2 - - - - - - -
14/11:00am 18.8 W 13 19 1012.6 - 0.2 - - - - - - -
14/10:45am 18.1 W 15 25 1012.5 - 0.2 - - - - - - -
14/10:30am 18.5 W 13 21 1012.6 - 0.2 - - - - - - -
14/10:00am 17.8 W 12 19 1012.4 - 0.2 - - - - - - -
14/09:30am 16.3 WNW 13 21 1012.2 - 0.2 - - - - - - -
14/09:12am 16.2 WNW 13 25 1012.1 - 0.0 - - - - - - -
14/09:00am 16.3 NW 15 22 1012.0 - 0.0 - - - - - - -
14/08:30am 16.0 NW 13 17 1011.6 - 0.2 Recent precip. - - - - - -
14/08:00am 17.4 NW 11 16 1011.4 - 0.2 - - - - - - -
14/07:30am 17.3 W 15 20 1011.1 - 0.0 - - - - - - -
14/07:00am 17.4 W 17 23 1010.9 - 0.0 - - - - - - -
14/06:30am 17.1 W 15 21 1010.6 - 0.0 - - - - - - -
14/06:00am 17.3 W 19 25 1010.2 - 0.0 - - - - - - -
14/05:53am 17.2 W 15 25 1010.1 - 0.0 - - - - - - -
14/05:30am 17.1 W 16 23 1009.8 - 0.0 - - - - - - -
14/05:00am 17.2 W 19 25 1009.5 - 0.0 - - - - - - -
14/04:30am 16.9 W 11 19 1009.5 - 0.0 - - - - - - -
14/04:23am 16.6 W 15 25 1009.6 - 0.0 - - - - - - -
14/04:00am 17.3 W 18 23 1009.4 - 0.0 - - - - - - -
14/03:30am 17.0 W 18 24 1009.5 - 0.0 - - - - - - -
14/03:00am 17.2 W 20 27 1009.6 - 0.0 - - - - - - -
14/02:30am 17.3 W 19 24 1009.8 - 0.0 - - - - - - -
14/02:00am 17.2 WNW 14 23 1009.9 - 0.0 - - - - - - -
14/01:30am 17.1 W 14 21 1010.0 - 0.0 - - - - - - -
14/01:00am 16.1 NW 11 15 1010.2 - 0.0 - - - - - - -
14/12:30am 16.4 NW 9 13 1010.2 - 0.0 - - - - - - -
14/12:00am 17.4 WNW 12 19 1010.5 - 0.0 - - - - - - -
 
Date/Time
CDT
Temp

°C
Wind Pressure Rain
since 9am
mm
Weather Cloud Vis
km
Sea
Height
m
Swell
Dir
 
Speed
knots
Gust
knots
hPa Trend Height
m
Period
s
Dir
13/11:30pm 17.2 WNW 11 17 1010.5 - 0.0 - - - - - - -
13/11:00pm 17.3 W 11 17 1010.9 - 0.0 - - - - - - -
13/10:30pm 17.6 W 13 19 1011.3 - 0.0 - - - - - - -
13/10:00pm 17.9 W 18 23 1011.4 - 0.0 - - - - - - -
13/09:30pm 17.8 W 17 23 1011.1 - 0.0 - - - - - - -
13/09:00pm 18.1 W 19 26 1010.8 - 0.0 - - - - - - -
13/08:30pm 18.1 W 20 27 1010.6 - 0.0 - - - - - - -
13/08:00pm 18.1 W 18 23 1010.4 - 0.0 - - - - - - -
13/07:30pm 18.2 W 16 23 1010.0 - 0.0 - - - - - - -
13/07:00pm 18.5 W 19 25 1009.7 - 0.0 - - - - - - -
13/06:30pm 18.2 WNW 13 21 1009.6 - 0.0 - - - - - - -
13/06:00pm 18.0 NW 11 18 1009.2 - 0.0 - - - - - - -
13/05:30pm 17.4 WNW 11 18 1009.4 - 0.0 - - - - - - -
13/05:00pm 19.0 WNW 10 13 1009.2 - 0.0 - - - - - - -
13/04:30pm 19.1 WNW 10 13 1009.2 - 0.0 - - - - - - -
13/04:00pm 17.5 W 11 15 1009.2 - 0.0 - - - - - - -
13/03:30pm 17.9 WNW 13 22 1009.2 - 0.0 - - - - - - -
13/03:00pm 19.0 W 15 21 1009.1 - 0.0 - - - - - - -
13/02:30pm 20.7 WNW 13 17 1009.2 - 0.0 - - - - - - -
13/02:00pm 21.2 WNW 13 18 1009.3 - 0.0 - - - - - - -
13/01:42pm 20.8 WNW 15 26 1009.3 - 0.0 - - - - - - -
13/01:30pm 23.0 WNW 15 22 1009.3 - 0.0 - - - - - - -
13/01:00pm 22.6 WNW 14 19 1009.6 - 0.0 - - - - - - -
13/12:30pm 22.4 WNW 14 17 1009.8 - 0.0 - - - - - - -
13/12:00pm 21.7 WNW 14 19 1009.8 - 0.0 - - - - - - -
13/11:30am 22.3 WNW 14 19 1009.7 - 0.0 - - - - - - -
13/11:00am 21.8 WNW 13 18 1009.6 - 0.0 - - - - - - -
13/10:30am 21.7 NW 11 15 1009.6 - 0.0 - - - - - - -
13/10:00am 20.8 NW 13 16 1009.6 - 0.0 - - - - - - -
13/09:30am 20.3 NW 11 15 1009.6 - 0.0 - - - - - - -
13/09:00am 18.9 NW 9 13 1009.7 - 0.0 - - - - - - -
13/08:30am 18.0 NW 10 12 1009.6 - 0.0 - - - - - - -
13/08:00am 16.7 NW 10 13 1009.7 - 0.0 - - - - - - -
13/07:30am 15.6 NW 8 11 1009.5 - 0.0 - - - - - - -
13/07:00am 15.1 NW 9 11 1009.2 - 0.0 - - - - - - -
13/06:30am 14.8 NW 9 12 1008.8 - 0.0 - - - - - - -
13/06:00am 14.7 WNW 9 11 1008.4 - 0.0 - - - - - - -
13/05:30am 15.2 NW 9 12 1008.5 - 0.0 - - - - - - -
13/05:00am 15.3 NW 10 12 1008.5 - 0.0 - - - - - - -
13/04:30am 15.7 NW 10 14 1008.3 - 0.0 - - - - - - -
13/04:00am 16.4 WNW 11 15 1008.3 - 0.0 - - - - - - -
13/03:30am 17.0 WNW 10 13 1008.5 - 0.0 - - - - - - -
13/03:00am 16.6 NW 9 12 1008.5 - 0.0 - - - - - - -
13/02:30am 16.0 NW 9 12 1008.7 - 0.0 - - - - - - -
13/02:00am 14.3 NW 5 8 1009.2 - 0.0 - - - - - - -
13/01:30am 14.6 NNW 5 7 1009.5 - 0.0 - - - - - - -
13/01:00am 14.5 N 6 7 1009.7 - 0.0 - - - - - - -
13/12:30am 14.9 NNW 5 6 1010.1 - 0.0 - - - - - - -
13/12:00am 15.2 N 7 8 1010.2 - 0.0 - - - - - - -
 
Date/Time
CDT
Temp

°C
Wind Pressure Rain
since 9am
mm
Weather Cloud Vis
km
Sea
Height
m
Swell
Dir
 
Speed
knots
Gust
knots
hPa Trend Height
m
Period
s
Dir
12/11:30pm 15.6 N 7 9 1010.2 - 0.0 - - - - - - -
12/11:00pm 16.1 NE 8 11 1010.4 - 0.0 - - - - - - -
12/10:30pm 16.0 NNE 7 9 1011.1 - 0.0 - - - - - - -
12/10:00pm 16.2 NE 8 11 1011.1 - 0.0 - - - - - - -
12/09:30pm 16.5 NE 9 11 1011.2 - 0.0 - - - - - - -
12/09:00pm 17.0 NE 7 10 1011.6 - 0.0 - - - - - - -
12/08:30pm 17.3 ENE 9 11 1011.7 - 0.0 - - - - - - -
12/08:00pm 17.8 E 9 11 1011.6 - 0.0 - - - - - - -
12/07:30pm 18.6 E 9 12 1011.8 - 0.0 - - - - - - -
12/07:00pm 19.0 E 8 10 1012.1 - 0.0 - - - - - - -
12/06:30pm 19.5 E 7 11 1012.1 - 0.0 - - - - - - -
12/06:00pm 20.0 ESE 7 11 1012.0 - 0.0 - - - - - - -
12/05:30pm 20.6 ESE 7 11 1012.1 - 0.0 - - - - - - -
12/05:00pm 20.8 SE 8 11 1012.5 - 0.0 - - - - - - -
12/04:30pm 21.4 SE 9 12 1012.8 - 0.0 - - - - - - -
12/04:00pm 21.1 SE 9 12 1013.0 - 0.0 - - - - - - -
12/03:30pm 21.0 SE 10 13 1013.2 - 0.0 - - - - - - -
12/03:00pm 21.1 SE 10 13 1013.7 - 0.0 - - - - - - -
12/02:30pm 21.3 SE 10 13 1014.0 - 0.0 - - - - - - -
12/02:00pm 21.7 ESE 8 11 1014.5 - 0.0 - - - - - - -
12/01:30pm 22.1 ESE 8 10 1014.5 - 0.0 - - - - - - -
12/01:00pm 22.1 ESE 8 11 1014.9 - 0.0 - - - - - - -
12/12:30pm 21.5 E 9 13 1015.0 - 0.0 - - - - - - -
12/12:00pm 21.3 E 10 13 1015.4 - 0.0 - - - - - - -
12/11:30am 21.2 E 12 14 1015.8 - 0.0 - - - - - - -
12/11:00am 21.0 E 12 14 1016.2 - 0.0 - - - - - - -
12/10:30am 20.6 E 11 13 1016.4 - 0.0 - - - - - - -
12/10:00am 20.3 E 10 12 1016.8 - 0.0 - - - - - - -
12/09:30am 19.7 E 11 13 1016.9 - 0.0 - - - - - - -
12/09:00am 19.6 E 9 13 1016.8 - 0.0 - - - - - - -
12/08:30am 19.1 E 9 14 1016.9 - 0.0 - - - - - - -
12/08:00am 18.7 ENE 9 13 1016.6 - 0.0 - - - - - - -
12/07:30am 17.7 ENE 9 12 1016.4 - 0.0 - - - - - - -
12/07:00am 16.8 E 9 12 1016.4 - 0.0 - - - - - - -
12/06:30am 16.4 E 10 13 1016.5 - 0.0 - - - - - - -
12/06:00am 16.3 E 11 14 1016.0 - 0.0 - - - - - - -
12/05:30am 16.5 E 12 15 1016.0 - 0.0 - - - - - - -
12/05:00am 16.6 E 14 17 1016.0 - 0.0 - - - - - - -
12/04:30am 16.8 E 15 18 1016.0 - 0.0 - - - - - - -
12/04:00am 16.8 E 15 18 1016.2 - 0.0 - - - - - - -
12/03:30am 16.8 E 11 16 1016.6 - 0.0 - - - - - - -
12/03:00am 16.9 ESE 9 15 1016.9 - 0.0 - - - - - - -
12/02:30am 16.9 ESE 9 15 1017.0 - 0.0 - - - - - - -
12/02:00am 17.0 ESE 10 16 1017.3 - 0.0 - - - - - - -
12/01:30am 17.1 ESE 10 15 1017.5 - 0.0 - - - - - - -
12/01:00am 17.5 ESE 11 15 1017.8 - 0.0 - - - - - - -
12/12:30am 17.3 ESE 10 13 1018.0 - 0.0 - - - - - - -
12/12:00am 17.3 ESE 9 14 1018.2 - 0.0 - - - - - - -
 
Date/Time
CDT
Temp

°C
Wind Pressure Rain
since 9am
mm
Weather Cloud Vis
km
Sea
Height
m
Swell
Dir
 
Speed
knots
Gust
knots
hPa Trend Height
m
Period
s
Dir
11/11:30pm 17.3 ESE 8 13 1018.3 - 0.0 - - - - - - -
11/11:00pm 17.4 ESE 9 13 1018.6 - 0.0 - - - - - - -

Other Formats:

Comma delimited format used in spreadsheet applications
http://www.bom.gov.au/fwo/IDS60701/IDS60701.94826.axf

JavaScript Object Notation format (JSON) in row-major order
http://www.bom.gov.au/fwo/IDS60701/IDS60701.94826.json